Time;durP1;ratioP1;P1;durP2;ratioP2;P2;SDS_P1;SDS_P2;PMS_P1;PMS_P2;Temp;Humidity;BMP_temperature;BMP_pressure;BME280_temperature;BME280_humidity;BME280_pressure;Samples;Min_cycle;Max_cycle;Signal;HPM_P1;HPM_P2
2022/10/28 04:30:17;;;;;;;13.20;5.72;;;17.20;80.70;;;;;;6010834;23;20084;-75
2022/10/28 04:32:43;;;;;;;9.45;5.50;;;17.20;80.80;;;;;;5006126;28;20037;-77
2022/10/28 04:35:10;;;;;;;16.58;6.22;;;17.20;80.80;;;;;;4995684;28;20041;-76
2022/10/28 04:37:36;;;;;;;13.85;5.05;;;17.10;80.80;;;;;;4994665;28;20109;-76
2022/10/28 04:40:02;;;;;;;12.27;5.32;;;17.20;80.90;;;;;;4995605;28;20058;-75
2022/10/28 04:42:28;;;;;;;10.73;5.20;;;17.10;80.90;;;;;;4978275;28;20023;-75
2022/10/28 04:44:54;;;;;;;10.57;5.63;;;17.10;81.00;;;;;;4995742;28;20034;-74
2022/10/28 04:47:19;;;;;;;13.98;5.93;;;17.20;81.10;;;;;;4998529;28;20033;-77
2022/10/28 04:49:45;;;;;;;14.35;5.53;;;17.20;80.90;;;;;;4998377;28;20034;-77
2022/10/28 04:52:14;;;;;;;14.13;4.88;;;17.10;80.90;;;;;;4990548;28;20018;-76
2022/10/28 04:54:39;;;;;;;11.77;5.85;;;17.10;80.80;;;;;;4999575;28;20034;-76
2022/10/28 04:57:05;;;;;;;11.88;5.65;;;17.10;80.90;;;;;;4998818;28;20023;-76
2022/10/28 04:59:31;;;;;;;11.68;6.18;;;17.00;80.90;;;;;;4999437;28;20038;-77
2022/10/28 05:01:56;;;;;;;12.98;5.82;;;17.00;81.00;;;;;;5000997;28;20025;-76
2022/10/28 05:04:22;;;;;;;19.42;6.57;;;17.00;81.00;;;;;;5012100;28;20037;-77
2022/10/28 05:06:48;;;;;;;16.42;5.95;;;17.00;80.90;;;;;;5001610;28;20014;-78
2022/10/28 05:09:13;;;;;;;13.40;5.78;;;17.00;81.00;;;;;;5013434;28;20023;-79
2022/10/28 05:11:39;;;;;;;20.40;6.88;;;17.00;80.90;;;;;;5010211;28;20564;-79
2022/10/28 05:14:05;;;;;;;12.77;6.10;;;16.90;81.00;;;;;;5017953;28;20443;-79
2022/10/28 05:16:30;;;;;;;15.88;7.72;;;16.90;81.00;;;;;;5012821;28;20057;-79
2022/10/28 05:18:57;;;;;;;13.00;6.15;;;16.90;81.00;;;;;;4999715;28;20493;-79
2022/10/28 05:21:22;;;;;;;14.20;5.28;;;16.90;81.00;;;;;;5019214;28;20029;-77
2022/10/28 05:23:48;;;;;;;15.68;6.38;;;16.80;81.10;;;;;;5008638;28;20030;-79
2022/10/28 05:26:14;;;;;;;15.20;6.78;;;16.80;81.40;;;;;;5016614;28;20037;-83
2022/10/28 05:28:40;;;;;;;11.38;5.93;;;16.80;81.70;;;;;;5003327;28;20039;-83
2022/10/28 05:31:06;;;;;;;13.30;5.93;;;16.80;81.60;;;;;;4982079;28;20043;-84
2022/10/28 05:33:34;;;;;;;11.85;5.75;;;16.80;81.50;;;;;;5000219;28;20034;-80
2022/10/28 05:36:01;;;;;;;18.05;6.80;;;16.70;82.10;;;;;;5001299;28;20109;-80
2022/10/28 05:38:27;;;;;;;15.43;6.30;;;16.60;82.50;;;;;;5017673;28;20030;-80
2022/10/28 05:40:52;;;;;;;16.95;6.75;;;16.60;82.60;;;;;;5018828;28;20050;-80
2022/10/28 05:43:18;;;;;;;9.75;5.40;;;16.60;82.70;;;;;;5003312;28;20042;-80
2022/10/28 05:45:50;;;;;;;11.70;5.75;;;16.60;82.90;;;;;;4981880;28;20146;-80
2022/10/28 05:48:16;;;;;;;15.70;5.25;;;16.60;82.90;;;;;;4981574;28;20034;-80
2022/10/28 05:50:41;;;;;;;20.52;8.00;;;16.70;82.60;;;;;;4999110;28;20019;-80
2022/10/28 05:53:07;;;;;;;16.42;6.72;;;16.70;82.50;;;;;;5017091;28;20033;-80
2022/10/28 05:55:34;;;;;;;12.48;5.97;;;16.70;82.30;;;;;;4999798;28;20034;-81
2022/10/28 05:58:00;;;;;;;16.25;6.75;;;16.80;82.40;;;;;;5000156;28;20038;-80
2022/10/28 06:00:28;;;;;;;15.77;6.38;;;16.80;82.40;;;;;;5002874;28;20033;-79
2022/10/28 06:03:20;;;;;;;12.02;5.82;;;16.80;82.20;;;;;;5008809;28;20038;-80
2022/10/28 06:05:46;;;;;;;18.10;7.35;;;16.80;82.50;;;;;;4993552;28;20401;-81
2022/10/28 06:08:13;;;;;;;12.95;5.55;;;16.70;82.40;;;;;;4990941;28;20121;-82
2022/10/28 06:10:39;;;;;;;15.25;5.80;;;16.80;82.50;;;;;;4985459;28;20018;-82
2022/10/28 06:13:04;;;;;;;11.55;5.80;;;16.80;82.30;;;;;;5012951;28;20028;-82
2022/10/28 06:15:30;;;;;;;16.13;6.13;;;16.80;82.20;;;;;;4985592;28;20113;-82
2022/10/28 06:17:57;;;;;;;12.88;5.65;;;16.80;82.00;;;;;;5009252;28;20921;-78
2022/10/28 06:20:23;;;;;;;15.40;5.95;;;16.80;82.20;;;;;;5012553;28;20077;-82
2022/10/28 06:22:53;;;;;;;13.23;5.22;;;16.80;82.20;;;;;;4995730;28;20064;-82
2022/10/28 06:25:20;;;;;;;16.40;6.03;;;16.80;82.30;;;;;;5008098;28;20048;-82
2022/10/28 06:27:52;;;;;;;11.95;5.72;;;16.80;82.10;;;;;;5014392;28;20072;-82
2022/10/28 06:30:18;;;;;;;13.00;5.40;;;16.90;82.00;;;;;;4999150;28;20056;-82
2022/10/28 06:32:44;;;;;;;15.43;5.93;;;16.80;82.20;;;;;;4998081;28;20124;-82
2022/10/28 06:35:09;;;;;;;15.45;6.18;;;16.80;82.20;;;;;;5016275;28;20113;-82
2022/10/28 06:37:35;;;;;;;10.35;5.50;;;16.80;82.30;;;;;;5016214;28;20030;-82
2022/10/28 06:40:18;;;;;;;13.93;5.95;;;16.80;82.20;;;;;;4997002;28;20034;-82
2022/10/28 06:42:44;;;;;;;18.30;6.03;;;16.80;82.00;;;;;;5013469;28;20031;-82
2022/10/28 06:45:09;;;;;;;13.77;5.45;;;16.80;82.10;;;;;;4996679;28;20026;-82
2022/10/28 06:47:35;;;;;;;15.68;6.45;;;16.80;82.10;;;;;;5011073;28;20523;-87
2022/10/28 06:50:01;;;;;;;21.23;6.53;;;16.80;82.10;;;;;;5014854;28;20038;-82
2022/10/28 06:52:26;;;;;;;13.05;5.85;;;16.80;82.10;;;;;;5016791;28;20537;-81
2022/10/28 06:54:52;;;;;;;21.17;6.60;;;16.80;82.20;;;;;;4997583;28;20061;-81
2022/10/28 06:57:28;;;;;;;;;;;;;;;;;;;;;
2022/10/28 06:59:54;;;;;;;11.73;5.88;;;16.90;82.10;;;;;;5018225;28;20032;-91
2022/10/28 07:02:20;;;;;;;15.73;6.03;;;16.80;82.40;;;;;;5005615;28;20034;-92
2022/10/28 07:04:45;;;;;;;14.55;5.57;;;16.80;82.50;;;;;;5006916;28;20026;-91
2022/10/28 07:07:13;;;;;;;28.63;8.20;;;16.80;82.60;;;;;;4988623;28;20116;-86
2022/10/28 07:09:41;;;;;;;14.75;6.45;;;16.80;82.70;;;;;;5007034;28;20026;-86
2022/10/28 07:12:07;;;;;;;18.80;5.65;;;16.80;82.50;;;;;;4987176;28;20036;-87
2022/10/28 07:14:33;;;;;;;20.65;5.93;;;16.80;82.40;;;;;;4986282;28;20105;-86
2022/10/28 07:16:59;;;;;;;17.17;5.60;;;17.00;82.20;;;;;;5004108;28;20029;-86
2022/10/28 07:19:25;;;;;;;15.13;5.25;;;17.00;82.10;;;;;;5005145;28;20030;-89
2022/10/28 07:21:50;;;;;;;19.27;6.47;;;17.00;82.10;;;;;;4986409;28;20039;-88
2022/10/28 07:24:16;;;;;;;14.70;5.93;;;17.10;81.90;;;;;;4991124;28;20113;-92
2022/10/28 07:26:42;;;;;;;9.13;4.30;;;17.20;81.70;;;;;;4988769;28;20049;-90
2022/10/28 07:29:07;;;;;;;15.30;4.88;;;17.20;81.80;;;;;;4988866;28;20050;-84
2022/10/28 07:31:33;;;;;;;9.77;5.05;;;17.20;81.70;;;;;;4984446;28;20050;-90
2022/10/28 07:33:59;;;;;;;8.70;4.45;;;17.30;81.80;;;;;;4995336;28;20026;-90
2022/10/28 07:36:24;;;;;;;15.70;5.40;;;17.30;81.80;;;;;;4992216;28;20026;-91
2022/10/28 07:38:51;;;;;;;10.80;4.72;;;17.30;81.80;;;;;;5001705;28;20085;-92
2022/10/28 07:41:20;;;;;;;14.65;4.82;;;17.40;81.70;;;;;;4994631;28;20026;-91
2022/10/28 07:43:46;;;;;;;7.82;3.80;;;17.50;81.90;;;;;;4996652;28;20034;-91
2022/10/28 07:46:12;;;;;;;16.70;4.43;;;17.50;81.90;;;;;;4992182;28;20442;-91
2022/10/28 07:48:39;;;;;;;9.98;4.28;;;17.60;81.70;;;;;;4987535;28;20117;-91
2022/10/28 07:51:07;;;;;;;15.75;5.05;;;17.60;81.80;;;;;;4997350;28;20036;-89
2022/10/28 07:53:33;;;;;;;11.25;4.35;;;17.60;81.80;;;;;;4991381;28;20058;-89
2022/10/28 07:56:08;;;;;;;17.63;3.90;;;17.70;82.00;;;;;;4998233;28;20113;-81
2022/10/28 07:58:35;;;;;;;11.93;3.63;;;17.70;82.10;;;;;;5018501;28;20045;-79
2022/10/28 08:01:04;;;;;;;10.02;3.78;;;17.70;82.20;;;;;;5012859;28;20032;-81
2022/10/28 08:03:29;;;;;;;9.10;3.92;;;17.70;82.20;;;;;;5013257;28;20107;-82
2022/10/28 08:06:16;;;;;;;13.75;3.67;;;17.80;82.10;;;;;;4995438;28;20114;-83
2022/10/28 08:08:43;;;;;;;12.25;4.15;;;17.80;82.30;;;;;;4996061;28;20025;-84
2022/10/28 08:11:11;;;;;;;10.88;3.85;;;17.80;82.10;;;;;;4994825;28;20444;-88
2022/10/28 08:13:37;;;;;;;5.85;2.90;;;17.90;82.10;;;;;;5012802;28;20101;-89
2022/10/28 08:16:03;;;;;;;18.77;4.30;;;18.00;82.30;;;;;;4994534;28;20065;-88
2022/10/28 08:18:28;;;;;;;9.18;3.63;;;18.00;82.10;;;;;;4988033;28;20034;-86
2022/10/28 08:20:54;;;;;;;13.02;3.85;;;18.10;81.80;;;;;;4996388;28;20034;-86
2022/10/28 08:23:20;;;;;;;4.90;2.67;;;18.30;81.60;;;;;;5001354;28;20152;-89
2022/10/28 08:25:50;;;;;;;9.02;3.45;;;18.30;81.40;;;;;;4990996;28;20059;-86
2022/10/28 08:28:16;;;;;;;10.52;2.72;;;18.30;81.20;;;;;;4998009;28;20033;-89
2022/10/28 08:30:42;;;;;;;6.95;2.70;;;18.30;81.20;;;;;;4996028;28;20479;-81
2022/10/28 08:33:07;;;;;;;9.48;2.72;;;18.30;81.20;;;;;;5014818;28;20022;-79
2022/10/28 08:35:34;;;;;;;9.85;2.58;;;18.30;81.30;;;;;;5008023;28;20141;-83
2022/10/28 08:38:00;;;;;;;7.82;1.88;;;18.30;81.10;;;;;;4992723;28;20032;-83
2022/10/28 08:40:54;;;;;;;10.25;2.53;;;18.30;81.00;;;;;;4989331;28;20033;-83
2022/10/28 08:43:34;;;;;;;9.40;2.92;;;18.30;80.90;;;;;;4971727;28;20072;-83
2022/10/28 08:46:08;;;;;;;9.60;1.90;;;18.30;80.60;;;;;;5012792;28;20073;-82
2022/10/28 08:48:35;;;;;;;14.25;2.60;;;18.40;80.60;;;;;;4992867;28;20606;-82
2022/10/28 08:51:13;;;;;;;6.90;1.95;;;18.30;80.00;;;;;;5000834;28;20026;-82
2022/10/28 08:53:53;;;;;;;9.60;2.25;;;18.40;80.20;;;;;;5003792;28;20026;-83
2022/10/28 08:56:25;;;;;;;6.68;1.83;;;18.50;79.90;;;;;;5004445;28;20030;-81
2022/10/28 08:58:53;;;;;;;8.32;2.17;;;18.50;79.80;;;;;;4981297;28;20099;-82
2022/10/28 09:01:43;;;;;;;4.18;1.98;;;18.50;79.60;;;;;;5006805;28;20022;-81
2022/10/28 09:04:22;;;;;;;7.70;1.77;;;18.60;79.40;;;;;;5007640;28;20104;-82
2022/10/28 09:06:47;;;;;;;9.05;2.35;;;18.70;78.90;;;;;;4989280;28;20034;-82
2022/10/28 09:09:21;;;;;;;5.88;1.75;;;18.80;79.00;;;;;;5017606;28;20048;-82
2022/10/28 09:11:47;;;;;;;5.88;1.50;;;18.90;78.60;;;;;;5013924;28;20033;-81
2022/10/28 09:14:41;;;;;;;7.60;2.33;;;18.90;78.50;;;;;;4996428;28;20022;-82
2022/10/28 09:17:21;;;;;;;4.47;1.27;;;19.00;78.50;;;;;;4980492;28;20138;-81
2022/10/28 09:19:55;;;;;;;4.93;1.33;;;19.20;78.30;;;;;;4985603;28;20022;-82
2022/10/28 09:22:31;;;;;;;9.75;1.92;;;19.20;78.00;;;;;;5000018;28;20060;-82
2022/10/28 09:25:03;;;;;;;4.45;1.88;;;19.30;77.40;;;;;;5001874;28;20073;-83
2022/10/28 09:27:58;;;;;;;11.48;1.85;;;19.30;77.20;;;;;;4996956;28;20027;-82
2022/10/28 09:30:30;;;;;;;9.45;1.48;;;19.30;77.10;;;;;;4993130;28;20587;-82
2022/10/28 09:33:17;;;;;;;8.88;2.00;;;19.30;76.20;;;;;;4998537;28;20026;-82
2022/10/28 09:35:46;;;;;;;6.60;1.13;;;19.40;76.60;;;;;;5018681;28;20049;-83
2022/10/28 09:38:29;;;;;;;4.32;1.45;;;19.40;76.70;;;;;;5012147;28;20034;-82
2022/10/28 09:41:00;;;;;;;6.60;1.00;;;19.50;76.50;;;;;;4999132;28;20069;-81
2022/10/28 09:43:31;;;;;;;5.65;1.42;;;19.50;76.20;;;;;;5017461;28;20084;-84
2022/10/28 09:46:06;;;;;;;4.50;0.93;;;19.50;76.00;;;;;;5003097;28;20078;-84
2022/10/28 09:48:40;;;;;;;10.20;1.10;;;19.60;75.90;;;;;;5006040;28;20030;-81
2022/10/28 09:51:14;;;;;;;5.65;1.08;;;19.50;76.00;;;;;;5008645;28;20046;-84
2022/10/28 09:53:49;;;;;;;7.60;1.45;;;19.30;75.90;;;;;;5018688;28;20053;-82
2022/10/28 09:56:15;;;;;;;7.22;1.17;;;19.40;75.80;;;;;;5003237;28;20030;-80
2022/10/28 09:58:45;;;;;;;9.00;1.10;;;19.50;76.00;;;;;;5015173;28;20117;-76
2022/10/28 10:01:12;;;;;;;7.63;1.10;;;19.50;75.60;;;;;;5006301;28;20117;-82
2022/10/28 10:03:39;;;;;;;6.80;1.40;;;19.60;75.60;;;;;;4999796;28;20061;-81
2022/10/28 10:06:17;;;;;;;5.57;0.82;;;19.60;75.00;;;;;;4996985;28;20030;-82
2022/10/28 10:08:44;;;;;;;4.03;1.15;;;19.70;75.30;;;;;;4997735;28;20034;-81
2022/10/28 10:11:31;;;;;;;4.00;1.15;;;19.80;75.20;;;;;;5013225;28;20026;-82
2022/10/28 10:14:01;;;;;;;3.22;1.00;;;19.80;75.30;;;;;;5017086;28;20046;-82
2022/10/28 10:16:39;;;;;;;8.48;1.00;;;19.80;74.90;;;;;;5011685;28;20478;-82
2022/10/28 10:19:08;;;;;;;3.97;0.70;;;19.90;75.40;;;;;;5007867;28;20037;-78
2022/10/28 10:21:45;;;;;;;3.47;0.85;;;19.90;74.60;;;;;;5012805;28;20030;-79
2022/10/28 10:24:24;;;;;;;8.25;1.27;;;19.90;74.40;;;;;;4998046;28;20444;-80
2022/10/28 10:26:51;;;;;;;2.37;0.80;;;19.90;74.70;;;;;;5017086;28;20037;-82
2022/10/28 10:29:18;;;;;;;7.30;1.52;;;19.90;74.70;;;;;;4986995;28;20060;-84
2022/10/28 10:31:45;;;;;;;6.95;1.33;;;19.90;74.60;;;;;;4988343;28;20069;-80
2022/10/28 10:34:25;;;;;;;8.45;0.98;;;19.90;74.40;;;;;;5014569;28;20034;-80
2022/10/28 10:36:54;;;;;;;6.35;1.85;;;19.90;74.20;;;;;;5000417;28;20030;-82
2022/10/28 10:39:29;;;;;;;5.50;1.10;;;20.00;74.60;;;;;;4980790;28;20473;-81
2022/10/28 10:41:55;;;;;;;4.00;0.90;;;20.00;74.40;;;;;;5016059;28;20484;-81
2022/10/28 10:44:21;;;;;;;2.25;0.80;;;20.00;74.70;;;;;;4996562;28;20048;-81
2022/10/28 10:47:06;;;;;;;5.45;1.00;;;20.00;74.80;;;;;;4994807;28;20022;-82
2022/10/28 10:49:35;;;;;;;7.45;1.13;;;20.00;74.80;;;;;;4994141;28;20508;-82
2022/10/28 10:52:06;;;;;;;4.97;1.42;;;20.00;75.10;;;;;;4980602;28;20032;-83
2022/10/28 10:54:33;;;;;;;3.10;1.10;;;20.10;74.40;;;;;;5011980;28;20109;-83
2022/10/28 10:57:14;;;;;;;2.28;1.00;;;20.00;74.40;;;;;;5016366;28;20496;-81
2022/10/28 10:59:44;;;;;;;3.55;0.90;;;20.10;74.00;;;;;;4999920;28;20440;-86
2022/10/28 11:02:38;;;;;;;;;;;20.10;73.90;;;;;;5017036;28;20566;-77
2022/10/28 11:05:07;;;;;;;8.18;0.77;;;20.10;73.20;;;;;;4996969;28;19917;-81
2022/10/28 11:07:33;;;;;;;3.72;0.90;;;20.30;73.20;;;;;;5002989;28;20034;-80
2022/10/28 11:10:00;;;;;;;4.68;1.08;;;20.30;72.80;;;;;;4980231;28;20037;-81
2022/10/28 11:12:26;;;;;;;8.98;1.33;;;20.30;72.90;;;;;;4997969;28;20065;-80
2022/10/28 11:15:00;;;;;;;4.40;0.85;;;20.20;72.60;;;;;;4980204;28;20026;-82
2022/10/28 11:17:32;;;;;;;3.85;1.00;;;20.20;73.00;;;;;;4997964;28;20030;-82
2022/10/28 11:20:00;;;;;;;2.95;0.98;;;20.20;73.30;;;;;;4997441;28;20449;-79
2022/10/28 11:22:38;;;;;;;4.75;0.85;;;20.30;73.10;;;;;;4997473;28;20105;-78
2022/10/28 11:25:25;;;;;;;6.40;1.17;;;20.30;72.70;;;;;;4997841;28;20025;-78
2022/10/28 11:28:18;;;;;;;6.25;1.65;;;20.30;72.70;;;;;;4996409;28;20125;-80
2022/10/28 11:30:56;;;;;;;6.47;1.23;;;20.30;72.70;;;;;;4996377;28;20073;-81
2022/10/28 11:33:49;;;;;;;8.20;1.38;;;20.30;72.80;;;;;;4999037;28;20061;-78
2022/10/28 11:36:27;;;;;;;7.70;1.20;;;20.30;72.60;;;;;;4990443;28;20033;-77
2022/10/28 11:39:05;;;;;;;8.32;1.42;;;20.40;73.20;;;;;;5023227;28;20034;-77
2022/10/28 11:41:48;;;;;;;7.47;1.30;;;20.50;72.40;;;;;;4993046;28;20038;-76
2022/10/28 11:44:31;;;;;;;9.52;1.35;;;20.50;72.20;;;;;;5012600;28;20117;-76
2022/10/28 11:47:06;;;;;;;7.43;1.20;;;20.60;72.10;;;;;;4993877;28;20503;-76
2022/10/28 11:49:34;;;;;;;8.82;1.58;;;20.70;71.50;;;;;;5011746;28;20018;-76
2022/10/28 11:52:23;;;;;;;4.47;1.08;;;20.70;72.00;;;;;;5006130;28;20110;-77
2022/10/28 11:55:11;;;;;;;6.45;1.25;;;20.80;71.80;;;;;;4985332;28;20017;-75
2022/10/28 11:57:55;;;;;;;11.00;1.70;;;20.80;71.10;;;;;;5003305;28;20404;-76
2022/10/28 12:01:08;;;;;;;5.60;1.13;;;20.80;71.00;;;;;;5006860;28;20022;-77
2022/10/28 12:03:58;;;;;;;4.95;0.98;;;20.80;71.30;;;;;;4946833;28;20057;-75
2022/10/28 12:06:43;;;;;;;;;;;21.00;70.80;;;;;;4997612;28;20041;-75
2022/10/28 12:09:37;;;;;;;5.35;1.40;;;21.10;70.10;;;;;;5001168;28;19987;-75
2022/10/28 12:12:49;;;;;;;5.72;1.25;;;21.00;69.20;;;;;;4982787;28;20413;-75
2022/10/28 12:15:43;;;;;;;3.42;0.90;;;20.90;69.40;;;;;;4978864;28;20524;-77
2022/10/28 12:18:21;;;;;;;5.22;1.13;;;20.80;69.90;;;;;;5017914;28;20040;-77
2022/10/28 12:21:21;;;;;;;5.25;1.25;;;20.90;70.30;;;;;;5006796;28;20029;-77
2022/10/28 12:23:48;;;;;;;7.82;1.30;;;20.80;70.20;;;;;;4988171;28;20053;-77
2022/10/28 12:26:16;;;;;;;7.20;1.25;;;20.80;70.00;;;;;;5013056;28;20484;-78
2022/10/28 12:28:57;;;;;;;9.48;1.20;;;20.70;69.90;;;;;;5015864;28;20032;-78
2022/10/28 12:31:27;;;;;;;5.32;1.35;;;20.80;70.10;;;;;;5013050;28;20088;-77
2022/10/28 12:33:57;;;;;;;;;;;20.90;69.90;;;;;;4998351;28;20057;-77
2022/10/28 12:36:30;;;;;;;6.72;1.77;;;20.80;70.00;;;;;;5016144;28;19948;-76
2022/10/28 12:39:01;;;;;;;4.50;1.27;;;20.90;69.90;;;;;;5024973;28;20489;-76
2022/10/28 12:41:50;;;;;;;5.78;1.23;;;20.90;70.30;;;;;;5007084;28;20033;-76
2022/10/28 12:44:19;;;;;;;8.63;1.20;;;20.80;70.50;;;;;;4983793;28;20092;-76
2022/10/28 12:47:04;;;;;;;7.47;1.27;;;20.80;70.90;;;;;;4987201;28;20423;-76
2022/10/28 12:49:45;;;;;;;5.70;1.23;;;20.70;71.20;;;;;;5009665;28;20053;-77
2022/10/28 12:53:02;;;;;;;5.30;1.30;;;20.70;71.10;;;;;;5007734;28;20033;-77
2022/10/28 12:55:54;;;;;;;6.20;0.90;;;20.80;71.40;;;;;;4957678;28;20454;-77
2022/10/28 12:58:28;;;;;;;8.30;1.13;;;20.80;71.40;;;;;;4986684;28;20109;-76
2022/10/28 13:00:59;;;;;;;5.10;0.93;;;20.80;71.20;;;;;;5002489;28;20025;-77
2022/10/28 13:03:25;;;;;;;6.28;1.52;;;20.80;71.30;;;;;;5006551;28;20026;-77
2022/10/28 13:06:22;;;;;;;5.35;1.23;;;20.80;71.10;;;;;;4993758;28;20022;-77
2022/10/28 13:09:15;;;;;;;3.25;0.77;;;20.80;71.20;;;;;;5007130;28;20030;-77
2022/10/28 13:11:56;;;;;;;6.90;1.40;;;20.80;71.00;;;;;;4992673;28;20026;-77
2022/10/28 13:14:40;;;;;;;6.72;0.95;;;20.80;71.00;;;;;;4999106;28;20331;-77
2022/10/28 13:17:21;;;;;;;3.53;1.00;;;20.80;71.30;;;;;;4980385;28;20049;-78
2022/10/28 13:20:11;;;;;;;8.02;1.00;;;20.80;71.00;;;;;;4999805;28;20029;-77
2022/10/28 13:23:17;;;;;;;5.93;1.13;;;20.80;70.90;;;;;;4999850;28;20049;-78
2022/10/28 13:25:59;;;;;;;2.88;1.40;;;20.80;70.80;;;;;;4951597;28;20049;-77
2022/10/28 13:28:31;;;;;;;5.90;1.38;;;20.70;70.80;;;;;;4981474;28;20046;-78
2022/10/28 13:31:04;;;;;;;4.38;0.70;;;20.70;70.60;;;;;;4998670;28;20049;-78
2022/10/28 13:33:32;;;;;;;5.95;1.70;;;20.60;70.80;;;;;;4999238;28;20026;-77
2022/10/28 13:36:25;;;;;;;11.02;3.55;;;20.70;70.70;;;;;;4981856;28;20030;-77
2022/10/28 13:38:58;;;;;;;8.93;1.92;;;20.70;70.60;;;;;;4999478;28;20026;-78
2022/10/28 13:41:42;;;;;;;7.65;1.85;;;20.70;70.40;;;;;;4982333;28;20034;-77
2022/10/28 13:44:07;;;;;;;5.80;1.38;;;20.70;70.70;;;;;;4981864;28;20088;-78
2022/10/28 13:46:59;;;;;;;9.48;1.20;;;20.70;70.50;;;;;;4999002;28;20038;-77
2022/10/28 13:49:29;;;;;;;5.90;0.85;;;20.60;70.30;;;;;;5001280;28;20018;-77
2022/10/28 13:52:10;;;;;;;8.93;1.00;;;20.60;70.00;;;;;;5018450;28;20412;-77
2022/10/28 13:54:38;;;;;;;8.32;1.05;;;20.60;70.30;;;;;;5018742;28;20053;-77
2022/10/28 13:57:26;;;;;;;4.20;1.15;;;20.60;70.20;;;;;;4994657;28;20057;-78
2022/10/28 13:59:55;;;;;;;8.15;1.13;;;20.70;70.20;;;;;;4981494;28;20026;-78
2022/10/28 14:02:37;;;;;;;4.40;0.85;;;20.80;70.10;;;;;;4981191;28;20061;-78
2022/10/28 14:05:09;;;;;;;7.13;1.48;;;20.80;70.40;;;;;;4999335;28;20838;-78
2022/10/28 14:07:54;;;;;;;5.15;1.08;;;20.80;70.40;;;;;;4981486;28;20033;-77
2022/10/28 14:10:28;;;;;;;8.02;1.10;;;20.80;70.40;;;;;;5018982;28;20018;-78
2022/10/28 14:13:03;;;;;;;7.80;1.50;;;20.80;70.40;;;;;;5012052;28;20026;-77
2022/10/28 14:15:38;;;;;;;5.78;1.42;;;20.70;70.40;;;;;;4998970;28;20068;-78
2022/10/28 14:18:12;;;;;;;1.92;0.90;;;20.70;71.10;;;;;;4981320;28;20508;-78
2022/10/28 14:20:47;;;;;;;7.40;1.23;;;20.60;71.10;;;;;;4980575;28;20034;-77
2022/10/28 14:23:19;;;;;;;5.00;1.90;;;20.60;71.10;;;;;;4998863;28;20034;-78
2022/10/28 14:25:52;;;;;;;6.30;1.98;;;20.70;71.10;;;;;;5005025;28;20483;-77
2022/10/28 14:28:27;;;;;;;9.77;2.38;;;20.60;71.00;;;;;;5018265;28;20026;-78
2022/10/28 14:33:36;;;;;;;3.03;1.15;;;20.60;70.90;;;;;;4998615;28;20034;-78
2022/10/28 14:36:18;;;;;;;4.38;1.15;;;20.60;70.80;;;;;;4980833;28;20054;-78
2022/10/28 14:39:02;;;;;;;5.97;1.30;;;20.60;70.60;;;;;;4998404;28;20030;-78
2022/10/28 14:41:56;;;;;;;7.72;1.48;;;20.60;70.90;;;;;;4980664;28;20035;-78
2022/10/28 14:44:53;;;;;;;5.20;1.17;;;20.60;70.60;;;;;;4998282;28;20030;-78
2022/10/28 14:47:56;;;;;;;6.82;1.40;;;20.60;70.90;;;;;;5002024;28;20132;-78
2022/10/28 14:50:25;;;;;;;9.65;2.08;;;20.50;71.10;;;;;;5017692;28;20059;-78
2022/10/28 14:52:53;;;;;;;7.38;2.28;;;20.60;70.90;;;;;;5004201;28;20073;-78
2022/10/28 14:55:24;;;;;;;16.77;4.93;;;20.50;71.00;;;;;;4999983;28;20720;-78
2022/10/28 14:57:49;;;;;;;9.25;3.42;;;20.50;71.00;;;;;;5010866;28;20022;-77
2022/10/28 15:00:22;;;;;;;7.43;1.27;;;20.50;71.20;;;;;;4989324;28;20037;-79
2022/10/28 15:02:49;;;;;;;4.00;1.52;;;20.50;71.40;;;;;;5017599;28;20030;-77
2022/10/28 15:05:19;;;;;;;3.72;1.77;;;20.50;71.10;;;;;;5004866;28;20102;-78
2022/10/28 15:07:45;;;;;;;8.15;1.20;;;20.40;71.30;;;;;;4997522;28;20023;-79
2022/10/28 15:10:34;;;;;;;5.20;1.35;;;20.50;71.40;;;;;;4998208;28;20105;-77
2022/10/28 15:13:00;;;;;;;6.95;1.10;;;20.50;71.50;;;;;;5014746;28;20099;-80
2022/10/28 15:15:31;;;;;;;6.68;1.17;;;20.40;71.20;;;;;;5012006;28;20022;-77
2022/10/28 15:17:59;;;;;;;3.22;1.30;;;20.40;71.40;;;;;;5012080;28;20021;-78
2022/10/28 15:20:32;;;;;;;5.82;1.85;;;20.40;71.50;;;;;;5013705;28;20037;-82
2022/10/28 15:23:20;;;;;;;7.78;1.67;;;20.40;71.70;;;;;;5015703;28;20026;-77
2022/10/28 15:26:07;;;;;;;6.05;1.38;;;20.30;71.80;;;;;;4993613;28;20026;-79
2022/10/28 15:28:33;;;;;;;4.88;2.00;;;20.30;71.90;;;;;;5015904;28;20029;-78
2022/10/28 15:30:58;;;;;;;8.02;1.20;;;20.30;71.90;;;;;;5006397;28;20685;-78
2022/10/28 15:33:28;;;;;;;9.30;1.73;;;20.30;72.00;;;;;;5016043;28;20080;-78
2022/10/28 15:36:11;;;;;;;5.47;1.98;;;20.30;72.10;;;;;;5015142;28;20034;-77
2022/10/28 15:38:39;;;;;;;8.50;1.50;;;20.20;72.30;;;;;;5016565;28;20037;-78
2022/10/28 15:41:20;;;;;;;6.07;1.58;;;20.20;72.30;;;;;;4994234;28;20057;-78
2022/10/28 15:43:58;;;;;;;7.05;1.75;;;20.10;72.40;;;;;;5014029;28;20033;-79
2022/10/28 15:46:24;;;;;;;7.88;1.33;;;20.10;72.60;;;;;;4979720;28;20034;-78
2022/10/28 15:48:54;;;;;;;6.53;1.40;;;20.10;72.40;;;;;;4997221;28;20038;-79
2022/10/28 15:51:20;;;;;;;7.10;1.77;;;20.00;72.40;;;;;;5001509;28;20554;-80
2022/10/28 15:53:53;;;;;;;5.13;1.38;;;20.00;72.40;;;;;;5013873;28;20026;-78
2022/10/28 15:56:30;;;;;;;5.97;1.10;;;20.00;72.40;;;;;;4996641;28;20030;-78
2022/10/28 15:59:03;;;;;;;7.80;1.63;;;20.00;72.50;;;;;;4997027;28;20109;-77
2022/10/28 16:01:37;;;;;;;3.33;1.50;;;20.00;72.10;;;;;;4997431;28;20022;-77
2022/10/28 16:04:05;;;;;;;3.28;1.40;;;19.90;72.10;;;;;;5007601;28;20064;-77
2022/10/28 16:06:35;;;;;;;3.72;0.90;;;19.90;72.00;;;;;;5000831;28;20718;-77
2022/10/28 16:09:14;;;;;;;13.27;2.28;;;19.90;72.10;;;;;;5012732;28;20026;-77
2022/10/28 16:12:03;;;;;;;8.43;2.45;;;19.90;72.10;;;;;;5015063;28;20065;-77
2022/10/28 16:14:28;;;;;;;4.88;1.50;;;19.80;72.40;;;;;;5014540;28;20167;-77
2022/10/28 16:16:54;;;;;;;9.15;1.83;;;19.80;72.40;;;;;;5015162;28;20053;-77
2022/10/28 16:19:34;;;;;;;5.35;1.45;;;19.80;72.50;;;;;;5015857;28;20021;-78
2022/10/28 16:21:59;;;;;;;3.60;1.20;;;19.80;72.70;;;;;;5015745;28;20018;-77
2022/10/28 16:24:25;;;;;;;8.98;1.67;;;19.70;72.90;;;;;;4998496;28;20401;-77
2022/10/28 16:26:51;;;;;;;4.90;1.38;;;19.70;73.00;;;;;;5009427;28;20041;-77
2022/10/28 16:29:16;;;;;;;7.43;1.55;;;19.70;73.00;;;;;;5021277;28;20476;-78
2022/10/28 16:31:45;;;;;;;7.38;2.33;;;19.60;73.20;;;;;;5014465;28;20072;-79
2022/10/28 16:34:13;;;;;;;5.63;1.25;;;19.60;73.30;;;;;;5013096;28;20025;-78
2022/10/28 16:36:39;;;;;;;3.45;1.10;;;19.60;73.50;;;;;;5006790;28;20030;-78
2022/10/28 16:39:11;;;;;;;3.55;1.48;;;19.60;73.50;;;;;;5006180;28;20026;-77
2022/10/28 16:41:36;;;;;;;8.20;1.70;;;19.50;73.70;;;;;;5014529;28;20488;-78
2022/10/28 16:44:02;;;;;;;11.35;2.40;;;19.50;73.80;;;;;;5016168;28;20096;-78
2022/10/28 16:46:28;;;;;;;4.97;1.80;;;19.50;73.90;;;;;;5004177;28;20109;-78
2022/10/28 16:48:53;;;;;;;6.47;2.85;;;19.40;74.20;;;;;;4995482;28;20077;-78
2022/10/28 16:51:19;;;;;;;8.05;2.53;;;19.40;74.20;;;;;;4997743;28;20401;-78
2022/10/28 16:53:49;;;;;;;7.90;2.50;;;19.40;74.30;;;;;;4995509;28;20041;-80
2022/10/28 16:56:15;;;;;;;5.28;2.50;;;19.30;74.60;;;;;;4978185;28;20077;-81
2022/10/28 16:58:41;;;;;;;6.15;2.22;;;19.30;74.50;;;;;;5012627;28;20026;-85
2022/10/28 17:01:08;;;;;;;5.50;2.20;;;19.30;74.70;;;;;;4993635;28;20045;-79
2022/10/28 17:03:36;;;;;;;7.13;2.00;;;19.30;74.80;;;;;;5006299;28;20037;-78
2022/10/28 17:06:02;;;;;;;6.88;2.03;;;19.30;74.80;;;;;;4996654;28;20045;-81
2022/10/28 17:08:28;;;;;;;6.13;1.60;;;19.30;75.10;;;;;;4993922;28;20023;-79
2022/10/28 17:10:53;;;;;;;9.63;2.10;;;19.20;75.10;;;;;;5007107;28;20033;-84
2022/10/28 17:13:19;;;;;;;7.28;1.98;;;19.20;75.20;;;;;;4978337;28;20104;-86
2022/10/28 17:15:51;;;;;;;5.68;1.75;;;19.20;75.30;;;;;;4996354;28;20034;-86
2022/10/28 17:18:17;;;;;;;4.88;1.88;;;19.30;75.30;;;;;;4995968;28;20041;-80
2022/10/28 17:20:42;;;;;;;5.15;1.73;;;19.20;75.30;;;;;;4995800;28;20034;-79
2022/10/28 17:23:08;;;;;;;8.48;2.13;;;19.30;75.40;;;;;;4996017;28;20033;-78
2022/10/28 17:25:33;;;;;;;10.88;2.80;;;19.30;75.30;;;;;;4995539;28;20041;-77
2022/10/28 17:27:59;;;;;;;8.25;1.80;;;19.30;75.40;;;;;;4985607;28;20014;-78
2022/10/28 17:30:25;;;;;;;4.85;1.60;;;19.30;75.50;;;;;;5015392;28;20041;-78
2022/10/28 17:32:52;;;;;;;5.55;1.63;;;19.30;75.60;;;;;;5004784;28;20377;-83
2022/10/28 17:35:19;;;;;;;2.80;1.25;;;19.30;75.50;;;;;;4996747;28;20034;-80
2022/10/28 17:37:50;;;;;;;3.15;1.48;;;19.20;75.60;;;;;;5015423;28;20026;-83
2022/10/28 17:40:16;;;;;;;6.70;2.10;;;19.30;75.60;;;;;;5015843;28;20026;-85
2022/10/28 17:42:42;;;;;;;10.25;1.67;;;19.30;75.60;;;;;;5015543;28;20520;-81
2022/10/28 17:45:09;;;;;;;4.60;1.80;;;19.30;75.70;;;;;;5002780;28;20083;-81